sensor_id;sensor_type;location;lat;lon;timestamp;P1;durP1;ratioP1;P2;durP2;ratioP2
11189;SDS011;5651;50.926;4.718;2023-01-10T06:34:01;21.77;;;3.70;;
11189;SDS011;5651;50.926;4.718;2023-01-10T06:36:27;17.83;;;3.58;;
11189;SDS011;5651;50.926;4.718;2023-01-10T06:38:53;17.38;;;4.75;;
11189;SDS011;5651;50.926;4.718;2023-01-10T06:41:19;21.15;;;4.40;;
11189;SDS011;5651;50.926;4.718;2023-01-10T06:43:45;22.85;;;4.18;;
11189;SDS011;5651;50.926;4.718;2023-01-10T06:46:12;20.77;;;4.13;;
11189;SDS011;5651;50.926;4.718;2023-01-10T06:48:41;16.35;;;3.92;;
11189;SDS011;5651;50.926;4.718;2023-01-10T06:51:08;28.55;;;5.82;;
11189;SDS011;5651;50.926;4.718;2023-01-10T06:53:34;19.63;;;4.68;;
11189;SDS011;5651;50.926;4.718;2023-01-10T06:55:59;14.68;;;3.35;;
11189;SDS011;5651;50.926;4.718;2023-01-10T06:58:28;27.35;;;5.60;;
11189;SDS011;5651;50.926;4.718;2023-01-10T07:00:53;18.23;;;4.43;;
11189;SDS011;5651;50.926;4.718;2023-01-10T07:03:19;29.20;;;5.05;;
11189;SDS011;5651;50.926;4.718;2023-01-10T07:05:45;18.83;;;4.13;;
11189;SDS011;5651;50.926;4.718;2023-01-10T07:08:16;16.90;;;4.40;;
11189;SDS011;5651;50.926;4.718;2023-01-10T07:10:42;19.52;;;4.40;;
11189;SDS011;5651;50.926;4.718;2023-01-10T07:13:09;26.75;;;4.25;;
11189;SDS011;5651;50.926;4.718;2023-01-10T07:15:35;17.50;;;5.10;;
11189;SDS011;5651;50.926;4.718;2023-01-10T07:18:01;17.92;;;4.40;;
11189;SDS011;5651;50.926;4.718;2023-01-10T07:20:26;21.00;;;4.30;;
11189;SDS011;5651;50.926;4.718;2023-01-10T07:22:56;16.02;;;4.75;;
11189;SDS011;5651;50.926;4.718;2023-01-10T07:25:24;19.05;;;5.10;;
11189;SDS011;5651;50.926;4.718;2023-01-10T07:27:51;18.58;;;4.30;;
11189;SDS011;5651;50.926;4.718;2023-01-10T07:30:19;23.20;;;4.20;;
11189;SDS011;5651;50.926;4.718;2023-01-10T07:32:51;21.70;;;4.38;;
11189;SDS011;5651;50.926;4.718;2023-01-10T07:35:18;22.20;;;4.57;;
11189;SDS011;5651;50.926;4.718;2023-01-10T07:37:43;23.95;;;4.22;;
11189;SDS011;5651;50.926;4.718;2023-01-10T07:40:09;23.80;;;4.05;;
11189;SDS011;5651;50.926;4.718;2023-01-10T07:42:35;20.67;;;4.50;;
11189;SDS011;5651;50.926;4.718;2023-01-10T07:45:01;25.08;;;6.47;;
11189;SDS011;5651;50.926;4.718;2023-01-10T07:47:27;20.50;;;4.57;;
11189;SDS011;5651;50.926;4.718;2023-01-10T07:49:53;13.13;;;3.38;;
11189;SDS011;5651;50.926;4.718;2023-01-10T07:52:19;15.20;;;4.57;;
11189;SDS011;5651;50.926;4.718;2023-01-10T07:54:45;16.92;;;5.72;;
11189;SDS011;5651;50.926;4.718;2023-01-10T07:57:11;20.25;;;4.47;;
11189;SDS011;5651;50.926;4.718;2023-01-10T07:59:36;21.55;;;4.55;;
11189;SDS011;5651;50.926;4.718;2023-01-10T08:02:02;19.38;;;4.05;;
11189;SDS011;5651;50.926;4.718;2023-01-10T08:04:28;22.65;;;4.60;;
11189;SDS011;5651;50.926;4.718;2023-01-10T08:06:53;18.77;;;4.05;;
11189;SDS011;5651;50.926;4.718;2023-01-10T08:09:19;18.52;;;4.07;;
11189;SDS011;5651;50.926;4.718;2023-01-10T08:11:45;19.13;;;4.53;;
11189;SDS011;5651;50.926;4.718;2023-01-10T08:14:11;16.98;;;4.35;;
11189;SDS011;5651;50.926;4.718;2023-01-10T08:16:36;19.63;;;4.57;;
11189;SDS011;5651;50.926;4.718;2023-01-10T08:19:02;17.20;;;5.22;;
11189;SDS011;5651;50.926;4.718;2023-01-10T08:21:28;20.30;;;4.75;;
11189;SDS011;5651;50.926;4.718;2023-01-10T08:23:53;25.77;;;5.82;;
11189;SDS011;5651;50.926;4.718;2023-01-10T08:26:19;20.13;;;4.85;;
11189;SDS011;5651;50.926;4.718;2023-01-10T08:28:45;19.20;;;5.30;;
11189;SDS011;5651;50.926;4.718;2023-01-10T08:31:11;19.95;;;4.05;;
11189;SDS011;5651;50.926;4.718;2023-01-10T08:33:37;18.88;;;4.55;;
11189;SDS011;5651;50.926;4.718;2023-01-10T08:36:04;23.08;;;4.75;;
11189;SDS011;5651;50.926;4.718;2023-01-10T08:38:30;16.90;;;4.30;;
11189;SDS011;5651;50.926;4.718;2023-01-10T08:40:56;27.33;;;4.50;;
11189;SDS011;5651;50.926;4.718;2023-01-10T08:43:25;20.35;;;4.32;;
11189;SDS011;5651;50.926;4.718;2023-01-10T08:45:50;21.98;;;5.25;;
11189;SDS011;5651;50.926;4.718;2023-01-10T08:48:16;15.95;;;4.70;;
11189;SDS011;5651;50.926;4.718;2023-01-10T08:50:42;23.77;;;4.50;;
11189;SDS011;5651;50.926;4.718;2023-01-10T08:53:08;24.98;;;5.78;;
11189;SDS011;5651;50.926;4.718;2023-01-10T08:55:33;28.60;;;5.25;;
11189;SDS011;5651;50.926;4.718;2023-01-10T08:58:01;18.05;;;5.75;;
11189;SDS011;5651;50.926;4.718;2023-01-10T09:00:28;26.92;;;4.55;;
11189;SDS011;5651;50.926;4.718;2023-01-10T09:02:54;20.17;;;4.28;;
11189;SDS011;5651;50.926;4.718;2023-01-10T09:05:20;24.25;;;6.90;;
11189;SDS011;5651;50.926;4.718;2023-01-10T09:07:45;15.13;;;5.18;;
11189;SDS011;5651;50.926;4.718;2023-01-10T09:10:11;16.33;;;4.05;;
11189;SDS011;5651;50.926;4.718;2023-01-10T09:12:37;18.90;;;4.35;;
11189;SDS011;5651;50.926;4.718;2023-01-10T09:15:22;19.63;;;4.30;;
11189;SDS011;5651;50.926;4.718;2023-01-10T09:17:56;25.42;;;4.93;;
11189;SDS011;5651;50.926;4.718;2023-01-10T09:20:23;18.40;;;4.35;;
11189;SDS011;5651;50.926;4.718;2023-01-10T09:22:50;18.20;;;4.72;;
11189;SDS011;5651;50.926;4.718;2023-01-10T09:25:16;16.88;;;3.90;;
11189;SDS011;5651;50.926;4.718;2023-01-10T09:27:42;26.67;;;9.48;;
11189;SDS011;5651;50.926;4.718;2023-01-10T09:30:08;18.38;;;5.50;;
11189;SDS011;5651;50.926;4.718;2023-01-10T09:32:35;13.50;;;4.03;;
11189;SDS011;5651;50.926;4.718;2023-01-10T09:35:01;14.50;;;3.88;;
11189;SDS011;5651;50.926;4.718;2023-01-10T09:37:27;21.35;;;6.28;;
11189;SDS011;5651;50.926;4.718;2023-01-10T09:39:54;19.85;;;4.75;;
11189;SDS011;5651;50.926;4.718;2023-01-10T09:45:20;24.60;;;8.73;;
11189;SDS011;5651;50.926;4.718;2023-01-10T09:48:18;21.90;;;4.80;;
11189;SDS011;5651;50.926;4.718;2023-01-10T09:53:57;17.35;;;3.90;;
11189;SDS011;5651;50.926;4.718;2023-01-10T09:56:27;22.35;;;4.80;;
11189;SDS011;5651;50.926;4.718;2023-01-10T09:58:54;28.85;;;6.90;;
11189;SDS011;5651;50.926;4.718;2023-01-10T10:01:26;17.60;;;4.30;;
11189;SDS011;5651;50.926;4.718;2023-01-10T10:06:29;20.02;;;3.50;;
11189;SDS011;5651;50.926;4.718;2023-01-10T10:08:55;20.55;;;5.95;;
11189;SDS011;5651;50.926;4.718;2023-01-10T10:14:02;16.15;;;4.10;;
11189;SDS011;5651;50.926;4.718;2023-01-10T10:16:47;19.50;;;5.35;;
11189;SDS011;5651;50.926;4.718;2023-01-10T10:19:23;20.90;;;5.07;;
11189;SDS011;5651;50.926;4.718;2023-01-10T10:28:00;17.05;;;4.43;;
11189;SDS011;5651;50.926;4.718;2023-01-10T10:36:26;19.15;;;4.28;;
11189;SDS011;5651;50.926;4.718;2023-01-10T10:39:11;22.98;;;4.65;;
11189;SDS011;5651;50.926;4.718;2023-01-10T10:41:41;16.38;;;3.97;;
11189;SDS011;5651;50.926;4.718;2023-01-10T10:47:16;20.27;;;4.63;;
11189;SDS011;5651;50.926;4.718;2023-01-10T10:49:51;14.32;;;4.28;;
11189;SDS011;5651;50.926;4.718;2023-01-10T10:52:25;25.05;;;5.00;;
11189;SDS011;5651;50.926;4.718;2023-01-10T10:54:55;16.88;;;3.95;;
11189;SDS011;5651;50.926;4.718;2023-01-10T10:57:22;19.98;;;4.05;;
11189;SDS011;5651;50.926;4.718;2023-01-10T10:59:50;26.38;;;5.03;;
11189;SDS011;5651;50.926;4.718;2023-01-10T11:02:21;21.63;;;4.38;;
11189;SDS011;5651;50.926;4.718;2023-01-10T11:04:54;23.90;;;4.72;;
11189;SDS011;5651;50.926;4.718;2023-01-10T11:07:23;22.17;;;4.47;;
11189;SDS011;5651;50.926;4.718;2023-01-10T11:09:50;20.10;;;4.38;;
11189;SDS011;5651;50.926;4.718;2023-01-10T11:12:23;28.77;;;4.60;;
11189;SDS011;5651;50.926;4.718;2023-01-10T11:14:56;17.65;;;3.92;;
11189;SDS011;5651;50.926;4.718;2023-01-10T11:22:24;14.68;;;5.28;;
11189;SDS011;5651;50.926;4.718;2023-01-10T11:24:57;19.40;;;5.05;;
11189;SDS011;5651;50.926;4.718;2023-01-10T11:27:26;24.67;;;4.20;;
11189;SDS011;5651;50.926;4.718;2023-01-10T11:29:59;24.05;;;5.22;;
11189;SDS011;5651;50.926;4.718;2023-01-10T11:32:31;17.10;;;4.53;;
11189;SDS011;5651;50.926;4.718;2023-01-10T11:35:01;17.40;;;4.13;;
11189;SDS011;5651;50.926;4.718;2023-01-10T11:37:32;21.85;;;4.20;;
11189;SDS011;5651;50.926;4.718;2023-01-10T11:42:51;18.88;;;5.03;;
11189;SDS011;5651;50.926;4.718;2023-01-10T11:45:25;15.85;;;4.20;;
11189;SDS011;5651;50.926;4.718;2023-01-10T11:50:37;20.85;;;5.63;;
11189;SDS011;5651;50.926;4.718;2023-01-10T11:53:06;18.38;;;4.03;;
11189;SDS011;5651;50.926;4.718;2023-01-10T11:55:59;18.10;;;3.80;;
11189;SDS011;5651;50.926;4.718;2023-01-10T11:58:28;22.13;;;6.03;;
11189;SDS011;5651;50.926;4.718;2023-01-10T12:00:57;22.45;;;5.00;;
11189;SDS011;5651;50.926;4.718;2023-01-10T12:03:24;19.30;;;4.22;;
11189;SDS011;5651;50.926;4.718;2023-01-10T12:05:54;16.58;;;4.30;;
11189;SDS011;5651;50.926;4.718;2023-01-10T12:08:30;22.83;;;4.97;;
11189;SDS011;5651;50.926;4.718;2023-01-10T12:10:59;24.95;;;4.65;;
11189;SDS011;5651;50.926;4.718;2023-01-10T12:13:28;22.98;;;3.90;;
11189;SDS011;5651;50.926;4.718;2023-01-10T12:18:39;19.77;;;3.85;;
11189;SDS011;5651;50.926;4.718;2023-01-10T12:21:05;22.60;;;4.63;;
11189;SDS011;5651;50.926;4.718;2023-01-10T12:23:32;21.67;;;5.43;;
11189;SDS011;5651;50.926;4.718;2023-01-10T12:26:04;22.75;;;4.55;;
11189;SDS011;5651;50.926;4.718;2023-01-10T12:28:31;18.20;;;3.38;;
11189;SDS011;5651;50.926;4.718;2023-01-10T12:31:00;23.30;;;4.00;;
11189;SDS011;5651;50.926;4.718;2023-01-10T12:33:30;17.30;;;3.80;;
11189;SDS011;5651;50.926;4.718;2023-01-10T12:38:39;26.80;;;5.72;;
11189;SDS011;5651;50.926;4.718;2023-01-10T12:44:29;18.95;;;3.83;;
11189;SDS011;5651;50.926;4.718;2023-01-10T12:52:50;21.52;;;3.78;;
11189;SDS011;5651;50.926;4.718;2023-01-10T12:55:22;14.02;;;3.70;;
11189;SDS011;5651;50.926;4.718;2023-01-10T12:57:54;19.40;;;3.67;;
11189;SDS011;5651;50.926;4.718;2023-01-10T13:00:27;16.45;;;4.63;;
11189;SDS011;5651;50.926;4.718;2023-01-10T13:02:58;14.10;;;4.47;;
11189;SDS011;5651;50.926;4.718;2023-01-10T13:05:26;19.42;;;4.03;;
11189;SDS011;5651;50.926;4.718;2023-01-10T13:07:53;17.50;;;3.53;;
11189;SDS011;5651;50.926;4.718;2023-01-10T13:10:25;21.92;;;3.88;;
11189;SDS011;5651;50.926;4.718;2023-01-10T13:13:00;18.55;;;3.67;;
11189;SDS011;5651;50.926;4.718;2023-01-10T13:15:36;14.50;;;4.35;;
11189;SDS011;5651;50.926;4.718;2023-01-10T13:18:28;15.32;;;4.07;;
11189;SDS011;5651;50.926;4.718;2023-01-10T13:21:11;15.88;;;4.35;;
11189;SDS011;5651;50.926;4.718;2023-01-10T13:23:47;18.85;;;3.83;;
11189;SDS011;5651;50.926;4.718;2023-01-10T13:26:14;18.20;;;3.92;;
11189;SDS011;5651;50.926;4.718;2023-01-10T13:28:50;18.20;;;3.92;;
11189;SDS011;5651;50.926;4.718;2023-01-10T13:31:29;17.27;;;3.58;;
11189;SDS011;5651;50.926;4.718;2023-01-10T13:33:58;16.27;;;4.25;;
11189;SDS011;5651;50.926;4.718;2023-01-10T13:36:28;27.85;;;5.32;;
11189;SDS011;5651;50.926;4.718;2023-01-10T13:39:00;16.92;;;3.35;;
11189;SDS011;5651;50.926;4.718;2023-01-10T13:52:47;18.45;;;4.97;;
11189;SDS011;5651;50.926;4.718;2023-01-10T13:57:56;18.73;;;3.60;;
11189;SDS011;5651;50.926;4.718;2023-01-10T14:00:25;13.75;;;3.78;;
11189;SDS011;5651;50.926;4.718;2023-01-10T14:03:43;21.05;;;4.30;;
11189;SDS011;5651;50.926;4.718;2023-01-10T14:06:11;12.00;;;3.70;;
11189;SDS011;5651;50.926;4.718;2023-01-10T14:14:44;16.55;;;4.50;;
11189;SDS011;5651;50.926;4.718;2023-01-10T14:19:56;19.58;;;4.40;;
11189;SDS011;5651;50.926;4.718;2023-01-10T14:22:34;10.55;;;3.13;;
11189;SDS011;5651;50.926;4.718;2023-01-10T14:25:15;14.05;;;3.47;;
11189;SDS011;5651;50.926;4.718;2023-01-10T14:27:46;15.50;;;3.17;;
11189;SDS011;5651;50.926;4.718;2023-01-10T14:30:16;17.52;;;4.60;;
11189;SDS011;5651;50.926;4.718;2023-01-10T14:32:45;12.23;;;3.90;;
11189;SDS011;5651;50.926;4.718;2023-01-10T14:35:16;14.45;;;5.40;;
11189;SDS011;5651;50.926;4.718;2023-01-10T14:40:36;11.77;;;3.10;;
11189;SDS011;5651;50.926;4.718;2023-01-10T14:43:26;11.57;;;3.13;;
11189;SDS011;5651;50.926;4.718;2023-01-10T14:46:02;12.88;;;3.45;;
11189;SDS011;5651;50.926;4.718;2023-01-10T14:48:45;12.27;;;3.20;;
11189;SDS011;5651;50.926;4.718;2023-01-10T14:51:28;10.10;;;2.20;;
11189;SDS011;5651;50.926;4.718;2023-01-10T14:56:40;9.07;;;2.70;;
11189;SDS011;5651;50.926;4.718;2023-01-10T15:02:00;8.18;;;2.45;;
11189;SDS011;5651;50.926;4.718;2023-01-10T15:04:30;8.90;;;2.60;;
11189;SDS011;5651;50.926;4.718;2023-01-10T15:07:11;9.15;;;2.58;;
11189;SDS011;5651;50.926;4.718;2023-01-10T15:09:46;6.85;;;2.83;;
11189;SDS011;5651;50.926;4.718;2023-01-10T15:12:16;9.73;;;2.45;;
11189;SDS011;5651;50.926;4.718;2023-01-10T15:14:44;6.75;;;2.45;;
11189;SDS011;5651;50.926;4.718;2023-01-10T15:17:14;15.70;;;5.32;;
11189;SDS011;5651;50.926;4.718;2023-01-10T15:19:44;8.82;;;2.20;;
11189;SDS011;5651;50.926;4.718;2023-01-10T15:22:31;4.95;;;1.85;;
11189;SDS011;5651;50.926;4.718;2023-01-10T15:25:01;7.00;;;2.42;;
11189;SDS011;5651;50.926;4.718;2023-01-10T15:27:29;7.72;;;2.00;;
11189;SDS011;5651;50.926;4.718;2023-01-10T15:29:56;4.45;;;1.90;;
11189;SDS011;5651;50.926;4.718;2023-01-10T15:32:32;3.42;;;1.80;;
11189;SDS011;5651;50.926;4.718;2023-01-10T15:35:04;9.98;;;1.70;;
11189;SDS011;5651;50.926;4.718;2023-01-10T15:37:34;7.45;;;2.53;;
11189;SDS011;5651;50.926;4.718;2023-01-10T15:40:04;6.35;;;1.92;;
11189;SDS011;5651;50.926;4.718;2023-01-10T15:42:33;4.35;;;1.80;;
11189;SDS011;5651;50.926;4.718;2023-01-10T15:45:16;3.22;;;1.48;;
11189;SDS011;5651;50.926;4.718;2023-01-10T15:48:01;8.63;;;3.03;;
11189;SDS011;5651;50.926;4.718;2023-01-10T15:50:30;8.65;;;3.75;;
11189;SDS011;5651;50.926;4.718;2023-01-10T15:52:59;20.20;;;10.27;;
11189;SDS011;5651;50.926;4.718;2023-01-10T15:55:49;7.30;;;3.70;;
11189;SDS011;5651;50.926;4.718;2023-01-10T16:00:57;6.18;;;3.72;;
11189;SDS011;5651;50.926;4.718;2023-01-10T16:06:53;6.03;;;2.83;;
11189;SDS011;5651;50.926;4.718;2023-01-10T16:09:01;2.03;;;1.70;;
11189;SDS011;5651;50.926;4.718;2023-01-10T16:14:28;30.33;;;11.07;;
11189;SDS011;5651;50.926;4.718;2023-01-10T16:16:54;81.55;;;34.00;;
11189;SDS011;5651;50.926;4.718;2023-01-10T16:19:20;6.07;;;4.32;;
11189;SDS011;5651;50.926;4.718;2023-01-10T16:21:47;7.22;;;3.50;;
11189;SDS011;5651;50.926;4.718;2023-01-10T16:24:17;2.10;;;1.70;;
11189;SDS011;5651;50.926;4.718;2023-01-10T16:26:47;6.55;;;3.72;;
11189;SDS011;5651;50.926;4.718;2023-01-10T16:29:14;2.78;;;2.13;;
11189;SDS011;5651;50.926;4.718;2023-01-10T16:31:50;2.33;;;2.13;;
11189;SDS011;5651;50.926;4.718;2023-01-10T16:34:27;3.35;;;1.60;;
11189;SDS011;5651;50.926;4.718;2023-01-10T16:37:11;3.58;;;2.35;;
11189;SDS011;5651;50.926;4.718;2023-01-10T16:42:13;4.20;;;2.53;;
11189;SDS011;5651;50.926;4.718;2023-01-10T16:44:58;2.08;;;1.45;;
11189;SDS011;5651;50.926;4.718;2023-01-10T16:47:23;2.08;;;1.77;;
11189;SDS011;5651;50.926;4.718;2023-01-10T16:49:49;1.98;;;1.50;;
11189;SDS011;5651;50.926;4.718;2023-01-10T16:52:15;1.42;;;1.20;;
11189;SDS011;5651;50.926;4.718;2023-01-10T16:54:41;1.58;;;1.42;;
11189;SDS011;5651;50.926;4.718;2023-01-10T16:57:16;3.80;;;1.77;;
11189;SDS011;5651;50.926;4.718;2023-01-10T16:59:42;2.17;;;1.25;;
11189;SDS011;5651;50.926;4.718;2023-01-10T17:02:14;1.67;;;1.15;;
11189;SDS011;5651;50.926;4.718;2023-01-10T17:04:42;3.67;;;1.20;;
11189;SDS011;5651;50.926;4.718;2023-01-10T17:07:11;1.77;;;1.52;;
11189;SDS011;5651;50.926;4.718;2023-01-10T17:09:40;2.17;;;1.92;;
11189;SDS011;5651;50.926;4.718;2023-01-10T17:12:08;4.18;;;2.63;;
11189;SDS011;5651;50.926;4.718;2023-01-10T17:15:20;4.43;;;2.30;;
11189;SDS011;5651;50.926;4.718;2023-01-10T17:18:31;6.28;;;4.82;;
11189;SDS011;5651;50.926;4.718;2023-01-10T17:21:24;1.77;;;1.67;;
11189;SDS011;5651;50.926;4.718;2023-01-10T17:23:51;15.05;;;11.65;;
11189;SDS011;5651;50.926;4.718;2023-01-10T17:26:19;3.67;;;1.60;;
11189;SDS011;5651;50.926;4.718;2023-01-10T17:28:48;3.78;;;2.97;;
11189;SDS011;5651;50.926;4.718;2023-01-10T17:31:15;2.33;;;1.60;;
11189;SDS011;5651;50.926;4.718;2023-01-10T17:33:44;3.03;;;2.03;;
11189;SDS011;5651;50.926;4.718;2023-01-10T17:36:10;3.53;;;2.42;;
11189;SDS011;5651;50.926;4.718;2023-01-10T17:38:37;3.47;;;1.75;;
11189;SDS011;5651;50.926;4.718;2023-01-10T17:41:03;5.90;;;1.85;;
11189;SDS011;5651;50.926;4.718;2023-01-10T17:43:30;4.97;;;2.58;;
11189;SDS011;5651;50.926;4.718;2023-01-10T17:45:56;3.10;;;1.95;;
11189;SDS011;5651;50.926;4.718;2023-01-10T17:48:25;2.05;;;1.80;;
11189;SDS011;5651;50.926;4.718;2023-01-10T17:50:55;2.95;;;2.22;;
11189;SDS011;5651;50.926;4.718;2023-01-10T17:53:23;3.38;;;2.20;;
11189;SDS011;5651;50.926;4.718;2023-01-10T17:55:49;2.22;;;1.50;;
11189;SDS011;5651;50.926;4.718;2023-01-10T17:58:26;3.20;;;2.25;;
11189;SDS011;5651;50.926;4.718;2023-01-10T18:00:58;3.70;;;1.90;;
11189;SDS011;5651;50.926;4.718;2023-01-10T18:03:23;3.50;;;2.20;;
11189;SDS011;5651;50.926;4.718;2023-01-10T18:05:54;2.40;;;1.90;;
11189;SDS011;5651;50.926;4.718;2023-01-10T18:11:47;2.83;;;2.13;;
11189;SDS011;5651;50.926;4.718;2023-01-10T18:14:19;2.80;;;2.20;;
11189;SDS011;5651;50.926;4.718;2023-01-10T18:17:00;4.35;;;2.30;;
11189;SDS011;5651;50.926;4.718;2023-01-10T18:19:46;4.15;;;2.42;;
11189;SDS011;5651;50.926;4.718;2023-01-10T18:22:18;4.18;;;2.20;;
11189;SDS011;5651;50.926;4.718;2023-01-10T18:25:12;3.53;;;2.13;;
11189;SDS011;5651;50.926;4.718;2023-01-10T18:27:41;5.78;;;2.58;;
11189;SDS011;5651;50.926;4.718;2023-01-10T18:30:07;3.55;;;2.50;;
11189;SDS011;5651;50.926;4.718;2023-01-10T18:32:33;3.92;;;2.45;;
11189;SDS011;5651;50.926;4.718;2023-01-10T18:34:59;5.70;;;2.85;;
11189;SDS011;5651;50.926;4.718;2023-01-10T18:37:34;5.47;;;2.67;;
11189;SDS011;5651;50.926;4.718;2023-01-10T18:40:00;5.45;;;3.00;;
11189;SDS011;5651;50.926;4.718;2023-01-10T18:42:29;5.05;;;2.80;;
11189;SDS011;5651;50.926;4.718;2023-01-10T18:44:55;6.22;;;2.88;;
11189;SDS011;5651;50.926;4.718;2023-01-10T18:47:36;10.82;;;5.05;;
11189;SDS011;5651;50.926;4.718;2023-01-10T18:50:14;7.15;;;3.28;;
11189;SDS011;5651;50.926;4.718;2023-01-10T18:52:51;4.35;;;2.42;;
11189;SDS011;5651;50.926;4.718;2023-01-10T18:55:19;6.63;;;3.05;;
11189;SDS011;5651;50.926;4.718;2023-01-10T18:57:45;3.60;;;2.45;;
11189;SDS011;5651;50.926;4.718;2023-01-10T19:00:11;6.35;;;2.90;;
11189;SDS011;5651;50.926;4.718;2023-01-10T19:02:37;7.45;;;3.20;;
11189;SDS011;5651;50.926;4.718;2023-01-10T19:05:03;4.53;;;2.75;;
11189;SDS011;5651;50.926;4.718;2023-01-10T19:07:33;3.67;;;2.33;;
11189;SDS011;5651;50.926;4.718;2023-01-10T19:10:00;5.40;;;2.83;;
11189;SDS011;5651;50.926;4.718;2023-01-10T19:12:29;4.53;;;2.92;;
11189;SDS011;5651;50.926;4.718;2023-01-10T19:14:56;5.53;;;2.85;;
11189;SDS011;5651;50.926;4.718;2023-01-10T19:17:22;6.22;;;2.70;;
11189;SDS011;5651;50.926;4.718;2023-01-10T19:19:49;5.13;;;3.35;;
11189;SDS011;5651;50.926;4.718;2023-01-10T19:22:15;5.78;;;3.45;;
11189;SDS011;5651;50.926;4.718;2023-01-10T19:24:42;5.72;;;2.80;;
11189;SDS011;5651;50.926;4.718;2023-01-10T19:27:08;6.70;;;3.05;;
11189;SDS011;5651;50.926;4.718;2023-01-10T19:29:35;4.90;;;2.97;;
11189;SDS011;5651;50.926;4.718;2023-01-10T19:32:01;6.82;;;3.35;;
11189;SDS011;5651;50.926;4.718;2023-01-10T19:34:28;5.07;;;3.10;;
11189;SDS011;5651;50.926;4.718;2023-01-10T19:36:54;6.47;;;3.47;;
11189;SDS011;5651;50.926;4.718;2023-01-10T19:39:20;5.40;;;3.63;;
11189;SDS011;5651;50.926;4.718;2023-01-10T19:41:46;6.68;;;3.20;;
11189;SDS011;5651;50.926;4.718;2023-01-10T19:44:12;5.50;;;3.08;;
11189;SDS011;5651;50.926;4.718;2023-01-10T19:46:39;6.05;;;3.38;;
11189;SDS011;5651;50.926;4.718;2023-01-10T19:49:06;5.47;;;3.00;;
11189;SDS011;5651;50.926;4.718;2023-01-10T19:51:33;6.57;;;3.72;;
11189;SDS011;5651;50.926;4.718;2023-01-10T19:54:03;7.15;;;3.40;;
11189;SDS011;5651;50.926;4.718;2023-01-10T19:56:30;7.93;;;4.10;;
11189;SDS011;5651;50.926;4.718;2023-01-10T19:58:56;5.93;;;3.22;;
11189;SDS011;5651;50.926;4.718;2023-01-10T20:01:29;4.55;;;3.40;;
11189;SDS011;5651;50.926;4.718;2023-01-10T20:03:56;6.97;;;3.80;;
11189;SDS011;5651;50.926;4.718;2023-01-10T20:06:26;7.40;;;4.43;;
11189;SDS011;5651;50.926;4.718;2023-01-10T20:08:53;7.95;;;3.20;;
11189;SDS011;5651;50.926;4.718;2023-01-10T20:11:20;6.50;;;3.42;;
11189;SDS011;5651;50.926;4.718;2023-01-10T20:13:47;7.00;;;4.03;;
11189;SDS011;5651;50.926;4.718;2023-01-10T20:16:14;5.95;;;3.45;;
11189;SDS011;5651;50.926;4.718;2023-01-10T20:18:50;9.50;;;4.10;;
11189;SDS011;5651;50.926;4.718;2023-01-10T20:21:16;6.53;;;3.00;;
11189;SDS011;5651;50.926;4.718;2023-01-10T20:23:43;5.45;;;3.08;;
11189;SDS011;5651;50.926;4.718;2023-01-10T20:26:11;8.57;;;3.80;;
11189;SDS011;5651;50.926;4.718;2023-01-10T20:28:39;4.05;;;2.83;;
11189;SDS011;5651;50.926;4.718;2023-01-10T20:31:08;6.13;;;3.15;;
11189;SDS011;5651;50.926;4.718;2023-01-10T20:33:37;4.95;;;2.42;;
11189;SDS011;5651;50.926;4.718;2023-01-10T20:36:06;5.72;;;2.80;;
11189;SDS011;5651;50.926;4.718;2023-01-10T20:38:35;5.75;;;2.80;;
11189;SDS011;5651;50.926;4.718;2023-01-10T20:41:09;7.63;;;3.33;;
11189;SDS011;5651;50.926;4.718;2023-01-10T20:43:39;5.97;;;3.07;;
11189;SDS011;5651;50.926;4.718;2023-01-10T20:46:05;3.78;;;2.70;;
11189;SDS011;5651;50.926;4.718;2023-01-10T20:48:36;4.53;;;2.90;;
11189;SDS011;5651;50.926;4.718;2023-01-10T20:51:03;5.50;;;2.78;;
11189;SDS011;5651;50.926;4.718;2023-01-10T20:53:29;8.63;;;3.03;;
11189;SDS011;5651;50.926;4.718;2023-01-10T20:56:02;5.13;;;3.00;;
11189;SDS011;5651;50.926;4.718;2023-01-10T20:58:30;5.88;;;2.75;;
11189;SDS011;5651;50.926;4.718;2023-01-10T21:00:57;5.13;;;2.78;;
11189;SDS011;5651;50.926;4.718;2023-01-10T21:03:23;7.00;;;2.50;;
11189;SDS011;5651;50.926;4.718;2023-01-10T21:05:50;4.03;;;2.35;;
11189;SDS011;5651;50.926;4.718;2023-01-10T21:08:19;7.18;;;2.65;;
11189;SDS011;5651;50.926;4.718;2023-01-10T21:10:46;4.30;;;2.20;;
11189;SDS011;5651;50.926;4.718;2023-01-10T21:13:13;4.80;;;2.40;;
11189;SDS011;5651;50.926;4.718;2023-01-10T21:15:42;5.78;;;2.28;;
11189;SDS011;5651;50.926;4.718;2023-01-10T21:18:09;3.40;;;2.60;;
11189;SDS011;5651;50.926;4.718;2023-01-10T21:20:40;7.78;;;3.28;;
11189;SDS011;5651;50.926;4.718;2023-01-10T21:23:07;6.25;;;2.45;;
11189;SDS011;5651;50.926;4.718;2023-01-10T21:25:33;5.10;;;2.10;;
11189;SDS011;5651;50.926;4.718;2023-01-10T21:28:02;4.57;;;2.15;;
11189;SDS011;5651;50.926;4.718;2023-01-10T21:30:34;3.42;;;2.00;;
11189;SDS011;5651;50.926;4.718;2023-01-10T21:33:01;3.17;;;2.13;;
11189;SDS011;5651;50.926;4.718;2023-01-10T21:35:27;5.22;;;2.28;;
11189;SDS011;5651;50.926;4.718;2023-01-10T21:37:53;3.65;;;2.25;;
11189;SDS011;5651;50.926;4.718;2023-01-10T21:40:26;4.47;;;1.97;;
11189;SDS011;5651;50.926;4.718;2023-01-10T21:42:53;6.20;;;2.60;;
11189;SDS011;5651;50.926;4.718;2023-01-10T21:45:20;5.65;;;2.08;;
11189;SDS011;5651;50.926;4.718;2023-01-10T21:47:49;6.80;;;2.40;;
11189;SDS011;5651;50.926;4.718;2023-01-10T21:50:16;3.60;;;2.17;;
11189;SDS011;5651;50.926;4.718;2023-01-10T21:52:42;4.82;;;1.92;;
11189;SDS011;5651;50.926;4.718;2023-01-10T21:55:09;4.90;;;2.13;;
11189;SDS011;5651;50.926;4.718;2023-01-10T21:57:38;5.82;;;2.60;;
11189;SDS011;5651;50.926;4.718;2023-01-10T22:00:04;5.60;;;2.33;;
11189;SDS011;5651;50.926;4.718;2023-01-10T22:02:30;4.78;;;2.30;;
11189;SDS011;5651;50.926;4.718;2023-01-10T22:04:59;3.90;;;2.13;;
11189;SDS011;5651;50.926;4.718;2023-01-10T22:07:26;5.68;;;2.28;;
11189;SDS011;5651;50.926;4.718;2023-01-10T22:09:52;3.92;;;2.05;;
11189;SDS011;5651;50.926;4.718;2023-01-10T22:12:19;5.65;;;2.58;;
11189;SDS011;5651;50.926;4.718;2023-01-10T22:14:46;4.80;;;2.30;;
11189;SDS011;5651;50.926;4.718;2023-01-10T22:17:13;5.22;;;2.80;;
11189;SDS011;5651;50.926;4.718;2023-01-10T22:19:39;6.20;;;2.15;;
11189;SDS011;5651;50.926;4.718;2023-01-10T22:22:06;8.50;;;2.53;;
11189;SDS011;5651;50.926;4.718;2023-01-10T22:24:33;3.42;;;2.25;;
11189;SDS011;5651;50.926;4.718;2023-01-10T22:26:59;4.38;;;2.00;;
11189;SDS011;5651;50.926;4.718;2023-01-10T22:29:25;6.43;;;2.10;;
11189;SDS011;5651;50.926;4.718;2023-01-10T22:31:52;6.32;;;2.00;;
11189;SDS011;5651;50.926;4.718;2023-01-10T22:34:24;4.93;;;1.92;;
11189;SDS011;5651;50.926;4.718;2023-01-10T22:36:51;4.28;;;1.80;;
11189;SDS011;5651;50.926;4.718;2023-01-10T22:39:16;5.18;;;2.20;;
11189;SDS011;5651;50.926;4.718;2023-01-10T22:41:42;2.83;;;1.58;;
11189;SDS011;5651;50.926;4.718;2023-01-10T22:44:15;4.97;;;1.80;;
11189;SDS011;5651;50.926;4.718;2023-01-10T22:46:43;2.38;;;1.63;;
11189;SDS011;5651;50.926;4.718;2023-01-10T22:49:13;5.18;;;1.38;;
11189;SDS011;5651;50.926;4.718;2023-01-10T22:51:42;3.65;;;1.55;;
11189;SDS011;5651;50.926;4.718;2023-01-10T22:54:10;3.35;;;1.55;;
11189;SDS011;5651;50.926;4.718;2023-01-10T22:56:39;2.70;;;1.23;;
11189;SDS011;5651;50.926;4.718;2023-01-10T22:59:05;3.40;;;1.55;;
11189;SDS011;5651;50.926;4.718;2023-01-10T23:01:31;3.55;;;1.60;;
11189;SDS011;5651;50.926;4.718;2023-01-10T23:03:58;2.15;;;1.38;;
11189;SDS011;5651;50.926;4.718;2023-01-10T23:06:23;2.35;;;1.13;;
11189;SDS011;5651;50.926;4.718;2023-01-10T23:08:49;1.73;;;1.23;;
11189;SDS011;5651;50.926;4.718;2023-01-10T23:11:16;4.05;;;1.90;;
11189;SDS011;5651;50.926;4.718;2023-01-10T23:13:43;7.32;;;1.73;;
11189;SDS011;5651;50.926;4.718;2023-01-10T23:16:11;3.13;;;1.75;;
11189;SDS011;5651;50.926;4.718;2023-01-10T23:18:38;3.25;;;1.40;;
11189;SDS011;5651;50.926;4.718;2023-01-10T23:21:04;3.67;;;2.00;;